METAR OBSERVATIONS
Looking Back 6 hours

  • KPBF 231709Z AUTO 22009KT 10SM SCT008 SCT015 26/24 A2982 RMK AO2 T02610239 =
  • KPBF 231700Z AUTO 22010KT 10SM SCT008 BKN016 26/24 A2982 RMK AO2 T02610239 =
  • KPBF 231653Z AUTO 22010KT 10SM BKN008 OVC015 26/24 A2982 RMK AO2 CIG007V011 SLP095 T02560239 =
  • KPBF 231553Z AUTO 22011KT 10SM BKN007 OVC018 26/24 A2981 RMK AO2 CIG006V012 SLP091 T02560239 =
  • KPBF 231453Z AUTO 20011KT 10SM BKN009 OVC015 25/23 A2979 RMK AO2 CIG006V011 SLP085 T02500233 53017 =
  • KPBF 231433Z AUTO 20010KT 10SM BKN009 OVC013 25/24 A2978 RMK AO2 CIG006V011 T02500239 =
  • KPBF 231353Z AUTO 24008KT 10SM OVC012 26/24 A2977 RMK AO2 SLP077 T02560244 =
  • KPBF 231253Z AUTO 23011KT 10SM SCT009 BKN014 OVC070 25/24 A2974 RMK AO2 SLP068 T02500239 =
  • KPBF 231250Z AUTO 23012KT 10SM SCT009 BKN014 OVC075 24/24 A2974 RMK AO2 =
  • SPECI KPBF 231218Z AUTO 23010KT 10SM FEW009 OVC075 24/23 A2973 RMK AO2 T02440233 =
  • KPBF 231204Z AUTO 23012KT 10SM FEW010 BKN060 OVC070 24/23 A2971 RMK AO2 T02440233 =
  • KPBF 231153Z AUTO 23012KT 10SM SCT010 BKN029 OVC060 24/23 A2971 RMK AO2 RAE42 SLP057 P0003 60177 70265 T02440233 10250 20239 51022 =
  • KPBF 231140Z AUTO 23010KT 10SM -RA SCT010 BKN028 OVC050 24/23 A2970 RMK AO2 P0003 T02440233 =
  • KPBF 231129Z AUTO 24010KT 8SM -RA SCT010 BKN034 OVC042 24/23 A2970 RMK AO2 LTG DSNT E P0003 T02390233 =
    ________________________________________